Terminal Aerodrome Forecast
Issued by NWS

Home | Current Version | Previous Version | Text Only | Print | Product List | Glossary On
Versions: 1 2 3 4 5 6 7 8 9 10 11 12 13 14 15 16 17 18 19 20 21 22 23 24 25 26 27 28 29 30 31 32 33 34 35 36 37 38 39 40
000
FTUS45 KSLC 202321
TAFOGD
TAF
KOGD 202321Z 2100/2124 22011KT P6SM BKN100
     FM210200 33010KT P6SM BKN100
     FM211100 34006KT P6SM VCSH BKN060 OVC100
     FM211800 32011KT P6SM -RA SCT030 OVC050=

USA.gov is the U.S. government's official web portal to all federal, state and local government web resources and services.